sensor_id;sensor_type;location;lat;lon;timestamp;temperature;humidity
27270;DHT22;14769;56.934;24.176;2023-02-21T00:00:45;2.50;99.90
27270;DHT22;14769;56.934;24.176;2023-02-21T00:02:05;2.40;99.90
27270;DHT22;14769;56.934;24.176;2023-02-21T00:03:25;2.40;99.90
27270;DHT22;14769;56.934;24.176;2023-02-21T00:04:46;2.40;99.90
27270;DHT22;14769;56.934;24.176;2023-02-21T00:06:07;2.40;99.90
27270;DHT22;14769;56.934;24.176;2023-02-21T00:07:27;2.50;99.90
27270;DHT22;14769;56.934;24.176;2023-02-21T00:08:47;2.50;99.90
27270;DHT22;14769;56.934;24.176;2023-02-21T00:10:10;2.60;99.90
27270;DHT22;14769;56.934;24.176;2023-02-21T00:11:30;2.50;99.90
27270;DHT22;14769;56.934;24.176;2023-02-21T00:12:52;2.50;99.90
27270;DHT22;14769;56.934;24.176;2023-02-21T00:14:13;2.50;99.90
27270;DHT22;14769;56.934;24.176;2023-02-21T00:15:34;2.50;99.90
27270;DHT22;14769;56.934;24.176;2023-02-21T00:16:54;2.50;99.90
27270;DHT22;14769;56.934;24.176;2023-02-21T00:18:15;2.50;99.90
27270;DHT22;14769;56.934;24.176;2023-02-21T00:19:35;2.50;99.90
27270;DHT22;14769;56.934;24.176;2023-02-21T00:20:56;2.50;99.90
27270;DHT22;14769;56.934;24.176;2023-02-21T00:22:17;2.50;99.90
27270;DHT22;14769;56.934;24.176;2023-02-21T00:23:37;2.50;99.90
27270;DHT22;14769;56.934;24.176;2023-02-21T00:24:58;2.50;99.90
27270;DHT22;14769;56.934;24.176;2023-02-21T00:26:19;2.60;99.90
27270;DHT22;14769;56.934;24.176;2023-02-21T00:27:39;2.60;99.90
27270;DHT22;14769;56.934;24.176;2023-02-21T00:29:00;2.60;99.90
27270;DHT22;14769;56.934;24.176;2023-02-21T00:30:20;2.60;99.90
27270;DHT22;14769;56.934;24.176;2023-02-21T00:31:41;2.70;99.90
27270;DHT22;14769;56.934;24.176;2023-02-21T00:33:02;2.70;99.90
27270;DHT22;14769;56.934;24.176;2023-02-21T00:34:22;2.70;99.90
27270;DHT22;14769;56.934;24.176;2023-02-21T00:35:42;2.70;99.90
27270;DHT22;14769;56.934;24.176;2023-02-21T00:37:03;2.80;99.90
27270;DHT22;14769;56.934;24.176;2023-02-21T00:38:23;2.80;99.90
27270;DHT22;14769;56.934;24.176;2023-02-21T00:39:44;2.80;99.90
27270;DHT22;14769;56.934;24.176;2023-02-21T00:41:04;2.80;99.90
27270;DHT22;14769;56.934;24.176;2023-02-21T00:42:25;2.90;99.90
27270;DHT22;14769;56.934;24.176;2023-02-21T00:43:46;2.90;99.90
27270;DHT22;14769;56.934;24.176;2023-02-21T00:45:06;2.90;99.90
27270;DHT22;14769;56.934;24.176;2023-02-21T00:46:27;3.00;99.90
27270;DHT22;14769;56.934;24.176;2023-02-21T00:47:47;3.00;99.90
27270;DHT22;14769;56.934;24.176;2023-02-21T00:49:08;3.00;99.90
27270;DHT22;14769;56.934;24.176;2023-02-21T00:50:28;3.00;99.90
27270;DHT22;14769;56.934;24.176;2023-02-21T00:51:49;3.00;99.90
27270;DHT22;14769;56.934;24.176;2023-02-21T00:53:10;3.00;99.90
27270;DHT22;14769;56.934;24.176;2023-02-21T00:54:30;3.00;99.90
27270;DHT22;14769;56.934;24.176;2023-02-21T00:55:51;3.00;99.90
27270;DHT22;14769;56.934;24.176;2023-02-21T00:57:12;2.90;99.90
27270;DHT22;14769;56.934;24.176;2023-02-21T00:58:32;2.90;99.90
27270;DHT22;14769;56.934;24.176;2023-02-21T00:59:52;2.90;99.90
27270;DHT22;14769;56.934;24.176;2023-02-21T01:01:13;2.90;99.90
27270;DHT22;14769;56.934;24.176;2023-02-21T01:02:33;2.80;99.90
27270;DHT22;14769;56.934;24.176;2023-02-21T01:03:56;2.80;99.90
27270;DHT22;14769;56.934;24.176;2023-02-21T01:05:17;2.80;99.90
27270;DHT22;14769;56.934;24.176;2023-02-21T01:06:37;2.70;99.90
27270;DHT22;14769;56.934;24.176;2023-02-21T01:07:57;2.80;99.90
27270;DHT22;14769;56.934;24.176;2023-02-21T01:09:18;2.70;99.90
27270;DHT22;14769;56.934;24.176;2023-02-21T01:10:39;2.60;99.90
27270;DHT22;14769;56.934;24.176;2023-02-21T01:12:00;2.60;99.90
27270;DHT22;14769;56.934;24.176;2023-02-21T01:13:20;2.50;99.90
27270;DHT22;14769;56.934;24.176;2023-02-21T01:14:41;2.40;99.90
27270;DHT22;14769;56.934;24.176;2023-02-21T01:16:02;2.30;99.90
27270;DHT22;14769;56.934;24.176;2023-02-21T01:17:22;2.20;99.90
27270;DHT22;14769;56.934;24.176;2023-02-21T01:18:42;2.10;99.90
27270;DHT22;14769;56.934;24.176;2023-02-21T01:20:03;2.10;99.90
27270;DHT22;14769;56.934;24.176;2023-02-21T01:21:23;2.00;99.90
27270;DHT22;14769;56.934;24.176;2023-02-21T01:22:44;2.00;99.90
27270;DHT22;14769;56.934;24.176;2023-02-21T01:24:05;2.00;99.90
27270;DHT22;14769;56.934;24.176;2023-02-21T01:25:26;1.90;99.90
27270;DHT22;14769;56.934;24.176;2023-02-21T01:26:46;1.80;99.90
27270;DHT22;14769;56.934;24.176;2023-02-21T01:28:07;1.80;99.90
27270;DHT22;14769;56.934;24.176;2023-02-21T01:29:27;1.80;99.90
27270;DHT22;14769;56.934;24.176;2023-02-21T01:30:48;1.80;99.90
27270;DHT22;14769;56.934;24.176;2023-02-21T01:32:08;1.80;99.90
27270;DHT22;14769;56.934;24.176;2023-02-21T01:33:33;1.80;99.90
27270;DHT22;14769;56.934;24.176;2023-02-21T01:34:54;1.80;99.90
27270;DHT22;14769;56.934;24.176;2023-02-21T01:36:14;1.80;99.90
27270;DHT22;14769;56.934;24.176;2023-02-21T01:37:35;1.80;99.90
27270;DHT22;14769;56.934;24.176;2023-02-21T01:38:55;1.80;99.90
27270;DHT22;14769;56.934;24.176;2023-02-21T01:40:15;1.70;99.90
27270;DHT22;14769;56.934;24.176;2023-02-21T01:41:36;1.70;99.90
27270;DHT22;14769;56.934;24.176;2023-02-21T01:42:56;1.70;99.90
27270;DHT22;14769;56.934;24.176;2023-02-21T01:44:34;1.70;99.90
27270;DHT22;14769;56.934;24.176;2023-02-21T01:45:55;1.70;99.90
27270;DHT22;14769;56.934;24.176;2023-02-21T01:47:15;1.70;99.90
27270;DHT22;14769;56.934;24.176;2023-02-21T01:48:36;1.70;99.90
27270;DHT22;14769;56.934;24.176;2023-02-21T01:49:57;1.60;99.90
27270;DHT22;14769;56.934;24.176;2023-02-21T01:51:19;1.60;99.90
27270;DHT22;14769;56.934;24.176;2023-02-21T01:52:40;1.60;99.90
27270;DHT22;14769;56.934;24.176;2023-02-21T01:54:01;1.60;99.90
27270;DHT22;14769;56.934;24.176;2023-02-21T01:55:22;1.60;99.90
27270;DHT22;14769;56.934;24.176;2023-02-21T01:56:42;1.60;99.90
27270;DHT22;14769;56.934;24.176;2023-02-21T01:58:03;1.60;99.90
27270;DHT22;14769;56.934;24.176;2023-02-21T01:59:23;1.60;99.90
27270;DHT22;14769;56.934;24.176;2023-02-21T02:00:45;1.60;99.90
27270;DHT22;14769;56.934;24.176;2023-02-21T02:02:08;1.60;99.90
27270;DHT22;14769;56.934;24.176;2023-02-21T02:03:29;1.50;99.90
27270;DHT22;14769;56.934;24.176;2023-02-21T02:04:50;1.50;99.90
27270;DHT22;14769;56.934;24.176;2023-02-21T02:06:13;1.50;99.90
27270;DHT22;14769;56.934;24.176;2023-02-21T02:07:36;1.50;99.90
27270;DHT22;14769;56.934;24.176;2023-02-21T02:08:56;1.50;99.90
27270;DHT22;14769;56.934;24.176;2023-02-21T02:10:16;1.50;99.90
27270;DHT22;14769;56.934;24.176;2023-02-21T02:13:39;1.50;99.90
27270;DHT22;14769;56.934;24.176;2023-02-21T02:16:55;1.50;99.90
27270;DHT22;14769;56.934;24.176;2023-02-21T02:22:34;1.50;99.90
27270;DHT22;14769;56.934;24.176;2023-02-21T02:27:47;1.50;99.90
27270;DHT22;14769;56.934;24.176;2023-02-21T02:28:58;1.50;99.90
27270;DHT22;14769;56.934;24.176;2023-02-21T02:30:11;1.50;99.90
27270;DHT22;14769;56.934;24.176;2023-02-21T02:35:54;1.50;99.90
27270;DHT22;14769;56.934;24.176;2023-02-21T02:38:26;1.50;99.90
27270;DHT22;14769;56.934;24.176;2023-02-21T02:39:28;1.50;99.90
27270;DHT22;14769;56.934;24.176;2023-02-21T02:42:43;1.50;99.90
27270;DHT22;14769;56.934;24.176;2023-02-21T02:43:52;1.50;99.90
27270;DHT22;14769;56.934;24.176;2023-02-21T02:45:18;1.50;99.90
27270;DHT22;14769;56.934;24.176;2023-02-21T02:46:18;1.50;99.90
27270;DHT22;14769;56.934;24.176;2023-02-21T02:47:24;1.50;99.90
27270;DHT22;14769;56.934;24.176;2023-02-21T02:48:30;1.50;99.90
27270;DHT22;14769;56.934;24.176;2023-02-21T02:49:34;1.50;99.90
27270;DHT22;14769;56.934;24.176;2023-02-21T02:50:37;1.50;99.90
27270;DHT22;14769;56.934;24.176;2023-02-21T02:51:39;1.50;99.90
27270;DHT22;14769;56.934;24.176;2023-02-21T02:52:51;1.50;99.90
27270;DHT22;14769;56.934;24.176;2023-02-21T02:53:53;1.50;99.90
27270;DHT22;14769;56.934;24.176;2023-02-21T02:56:17;1.50;99.90
27270;DHT22;14769;56.934;24.176;2023-02-21T02:57:19;1.50;99.90
27270;DHT22;14769;56.934;24.176;2023-02-21T02:58:21;1.50;99.90
27270;DHT22;14769;56.934;24.176;2023-02-21T02:59:25;1.50;99.90
27270;DHT22;14769;56.934;24.176;2023-02-21T03:00:30;1.50;99.90
27270;DHT22;14769;56.934;24.176;2023-02-21T03:02:37;1.60;99.90
27270;DHT22;14769;56.934;24.176;2023-02-21T03:05:08;1.50;99.90
27270;DHT22;14769;56.934;24.176;2023-02-21T03:06:22;1.50;99.90
27270;DHT22;14769;56.934;24.176;2023-02-21T03:09:45;1.60;99.90
27270;DHT22;14769;56.934;24.176;2023-02-21T03:11:00;1.60;99.90
27270;DHT22;14769;56.934;24.176;2023-02-21T03:12:08;1.60;99.90
27270;DHT22;14769;56.934;24.176;2023-02-21T03:13:17;1.60;99.90
27270;DHT22;14769;56.934;24.176;2023-02-21T03:14:22;1.60;99.90
27270;DHT22;14769;56.934;24.176;2023-02-21T03:15:28;1.60;99.90
27270;DHT22;14769;56.934;24.176;2023-02-21T03:17:47;1.60;99.90
27270;DHT22;14769;56.934;24.176;2023-02-21T03:18:53;1.60;99.90
27270;DHT22;14769;56.934;24.176;2023-02-21T03:19:55;1.60;99.90
27270;DHT22;14769;56.934;24.176;2023-02-21T03:20:58;1.60;99.90
27270;DHT22;14769;56.934;24.176;2023-02-21T03:22:02;1.60;99.90
27270;DHT22;14769;56.934;24.176;2023-02-21T03:23:06;1.60;99.90
27270;DHT22;14769;56.934;24.176;2023-02-21T03:24:09;1.60;99.90
27270;DHT22;14769;56.934;24.176;2023-02-21T03:25:12;1.60;99.90
27270;DHT22;14769;56.934;24.176;2023-02-21T03:26:15;1.60;99.90
27270;DHT22;14769;56.934;24.176;2023-02-21T03:27:17;1.60;99.90
27270;DHT22;14769;56.934;24.176;2023-02-21T03:28:20;1.70;99.90
27270;DHT22;14769;56.934;24.176;2023-02-21T03:29:22;1.70;99.90
27270;DHT22;14769;56.934;24.176;2023-02-21T03:30:24;1.60;99.90
27270;DHT22;14769;56.934;24.176;2023-02-21T03:31:27;1.60;99.90
27270;DHT22;14769;56.934;24.176;2023-02-21T03:32:36;1.60;99.90
27270;DHT22;14769;56.934;24.176;2023-02-21T03:33:39;1.60;99.90
27270;DHT22;14769;56.934;24.176;2023-02-21T03:34:42;1.60;99.90
27270;DHT22;14769;56.934;24.176;2023-02-21T03:35:44;1.60;99.90
27270;DHT22;14769;56.934;24.176;2023-02-21T03:36:46;1.60;99.90
27270;DHT22;14769;56.934;24.176;2023-02-21T03:37:49;1.60;99.90
27270;DHT22;14769;56.934;24.176;2023-02-21T03:38:53;1.60;99.90
27270;DHT22;14769;56.934;24.176;2023-02-21T03:39:54;1.60;99.90
27270;DHT22;14769;56.934;24.176;2023-02-21T03:40:56;1.60;99.90
27270;DHT22;14769;56.934;24.176;2023-02-21T03:41:58;1.60;99.90
27270;DHT22;14769;56.934;24.176;2023-02-21T03:43:01;1.60;99.90
27270;DHT22;14769;56.934;24.176;2023-02-21T03:44:03;1.60;99.90
27270;DHT22;14769;56.934;24.176;2023-02-21T03:45:05;1.50;99.90
27270;DHT22;14769;56.934;24.176;2023-02-21T03:46:06;1.50;99.90
27270;DHT22;14769;56.934;24.176;2023-02-21T03:47:08;1.50;99.90
27270;DHT22;14769;56.934;24.176;2023-02-21T03:48:10;1.50;99.90
27270;DHT22;14769;56.934;24.176;2023-02-21T03:49:16;1.50;99.90
27270;DHT22;14769;56.934;24.176;2023-02-21T03:50:17;1.40;99.90
27270;DHT22;14769;56.934;24.176;2023-02-21T03:51:19;1.40;99.90
27270;DHT22;14769;56.934;24.176;2023-02-21T03:52:21;1.40;99.90
27270;DHT22;14769;56.934;24.176;2023-02-21T03:53:23;1.40;99.90
27270;DHT22;14769;56.934;24.176;2023-02-21T03:54:25;1.30;99.90
27270;DHT22;14769;56.934;24.176;2023-02-21T03:55:27;1.30;99.90
27270;DHT22;14769;56.934;24.176;2023-02-21T03:56:29;1.40;99.90
27270;DHT22;14769;56.934;24.176;2023-02-21T03:57:42;1.30;99.90
27270;DHT22;14769;56.934;24.176;2023-02-21T03:58:44;1.30;99.90
27270;DHT22;14769;56.934;24.176;2023-02-21T03:59:46;1.30;99.90
27270;DHT22;14769;56.934;24.176;2023-02-21T04:00:48;1.30;99.90
27270;DHT22;14769;56.934;24.176;2023-02-21T04:01:52;1.20;99.90
27270;DHT22;14769;56.934;24.176;2023-02-21T04:02:53;1.20;99.90
27270;DHT22;14769;56.934;24.176;2023-02-21T04:03:55;1.20;99.90
27270;DHT22;14769;56.934;24.176;2023-02-21T04:04:57;1.20;99.90
27270;DHT22;14769;56.934;24.176;2023-02-21T04:05:59;1.10;99.90
27270;DHT22;14769;56.934;24.176;2023-02-21T04:07:01;1.10;99.90
27270;DHT22;14769;56.934;24.176;2023-02-21T04:08:02;1.10;99.90
27270;DHT22;14769;56.934;24.176;2023-02-21T04:09:04;1.10;99.90
27270;DHT22;14769;56.934;24.176;2023-02-21T04:10:06;1.10;99.90
27270;DHT22;14769;56.934;24.176;2023-02-21T04:11:08;1.10;99.90
27270;DHT22;14769;56.934;24.176;2023-02-21T04:12:10;1.10;99.90
27270;DHT22;14769;56.934;24.176;2023-02-21T04:13:12;1.10;99.90
27270;DHT22;14769;56.934;24.176;2023-02-21T04:14:14;1.00;99.90
27270;DHT22;14769;56.934;24.176;2023-02-21T04:15:16;1.00;99.90
27270;DHT22;14769;56.934;24.176;2023-02-21T04:16:18;1.00;99.90
27270;DHT22;14769;56.934;24.176;2023-02-21T04:17:19;1.00;99.90
27270;DHT22;14769;56.934;24.176;2023-02-21T04:18:21;1.00;99.90
27270;DHT22;14769;56.934;24.176;2023-02-21T04:19:23;1.00;99.90
27270;DHT22;14769;56.934;24.176;2023-02-21T04:20:25;1.00;99.90
27270;DHT22;14769;56.934;24.176;2023-02-21T04:21:26;1.00;99.90
27270;DHT22;14769;56.934;24.176;2023-02-21T04:22:28;1.00;99.90
27270;DHT22;14769;56.934;24.176;2023-02-21T04:23:30;1.00;99.90
27270;DHT22;14769;56.934;24.176;2023-02-21T04:24:32;1.00;99.90
27270;DHT22;14769;56.934;24.176;2023-02-21T04:25:34;1.00;99.90
27270;DHT22;14769;56.934;24.176;2023-02-21T04:26:36;1.00;99.90
27270;DHT22;14769;56.934;24.176;2023-02-21T04:27:38;1.00;99.90
27270;DHT22;14769;56.934;24.176;2023-02-21T04:28:39;1.00;99.90
27270;DHT22;14769;56.934;24.176;2023-02-21T04:29:41;1.00;99.90
27270;DHT22;14769;56.934;24.176;2023-02-21T04:30:43;1.00;99.90
27270;DHT22;14769;56.934;24.176;2023-02-21T04:31:45;1.00;99.90
27270;DHT22;14769;56.934;24.176;2023-02-21T04:32:47;0.90;99.90
27270;DHT22;14769;56.934;24.176;2023-02-21T04:33:49;0.90;99.90
27270;DHT22;14769;56.934;24.176;2023-02-21T04:35:06;0.90;99.90
27270;DHT22;14769;56.934;24.176;2023-02-21T04:36:08;0.90;99.90
27270;DHT22;14769;56.934;24.176;2023-02-21T04:37:10;0.90;99.90
27270;DHT22;14769;56.934;24.176;2023-02-21T04:38:11;0.80;99.90
27270;DHT22;14769;56.934;24.176;2023-02-21T04:39:13;0.80;99.90
27270;DHT22;14769;56.934;24.176;2023-02-21T04:40:15;0.80;99.90
27270;DHT22;14769;56.934;24.176;2023-02-21T04:41:17;0.80;99.90
27270;DHT22;14769;56.934;24.176;2023-02-21T04:42:19;0.80;99.90
27270;DHT22;14769;56.934;24.176;2023-02-21T04:43:21;0.80;99.90
27270;DHT22;14769;56.934;24.176;2023-02-21T04:44:23;0.80;99.90
27270;DHT22;14769;56.934;24.176;2023-02-21T04:45:25;0.70;99.90
27270;DHT22;14769;56.934;24.176;2023-02-21T04:46:27;0.70;99.90
27270;DHT22;14769;56.934;24.176;2023-02-21T04:47:29;0.80;99.90
27270;DHT22;14769;56.934;24.176;2023-02-21T04:48:31;0.70;99.90
27270;DHT22;14769;56.934;24.176;2023-02-21T04:49:32;0.80;99.90
27270;DHT22;14769;56.934;24.176;2023-02-21T04:50:34;0.80;99.90
27270;DHT22;14769;56.934;24.176;2023-02-21T04:51:36;0.80;99.90
27270;DHT22;14769;56.934;24.176;2023-02-21T04:52:38;0.80;99.90
27270;DHT22;14769;56.934;24.176;2023-02-21T04:53:42;0.90;99.90
27270;DHT22;14769;56.934;24.176;2023-02-21T04:54:44;0.80;99.90
27270;DHT22;14769;56.934;24.176;2023-02-21T04:55:46;0.80;99.90
27270;DHT22;14769;56.934;24.176;2023-02-21T04:56:47;0.80;99.90
27270;DHT22;14769;56.934;24.176;2023-02-21T04:57:51;0.80;99.90
27270;DHT22;14769;56.934;24.176;2023-02-21T04:58:54;0.70;99.90
27270;DHT22;14769;56.934;24.176;2023-02-21T04:59:56;0.80;99.90
27270;DHT22;14769;56.934;24.176;2023-02-21T05:00:59;0.70;99.90
27270;DHT22;14769;56.934;24.176;2023-02-21T05:02:01;0.70;99.90
27270;DHT22;14769;56.934;24.176;2023-02-21T05:03:03;0.70;99.90
27270;DHT22;14769;56.934;24.176;2023-02-21T05:04:05;0.60;99.90
27270;DHT22;14769;56.934;24.176;2023-02-21T05:05:08;0.60;99.90
27270;DHT22;14769;56.934;24.176;2023-02-21T05:06:16;0.60;99.90
27270;DHT22;14769;56.934;24.176;2023-02-21T05:07:18;0.60;99.90
27270;DHT22;14769;56.934;24.176;2023-02-21T05:08:20;0.60;99.90
27270;DHT22;14769;56.934;24.176;2023-02-21T05:09:27;0.60;99.90
27270;DHT22;14769;56.934;24.176;2023-02-21T05:10:29;0.60;99.90
27270;DHT22;14769;56.934;24.176;2023-02-21T05:11:45;0.50;99.90
27270;DHT22;14769;56.934;24.176;2023-02-21T05:12:47;0.60;99.90
27270;DHT22;14769;56.934;24.176;2023-02-21T05:13:49;0.60;99.90
27270;DHT22;14769;56.934;24.176;2023-02-21T05:14:51;0.60;99.90
27270;DHT22;14769;56.934;24.176;2023-02-21T05:15:56;0.60;99.90
27270;DHT22;14769;56.934;24.176;2023-02-21T05:16:58;0.60;99.90
27270;DHT22;14769;56.934;24.176;2023-02-21T05:17:59;0.50;99.90
27270;DHT22;14769;56.934;24.176;2023-02-21T05:19:08;0.50;99.90
27270;DHT22;14769;56.934;24.176;2023-02-21T05:20:10;0.50;99.90
27270;DHT22;14769;56.934;24.176;2023-02-21T05:21:13;0.50;99.90
27270;DHT22;14769;56.934;24.176;2023-02-21T05:22:18;0.50;99.90
27270;DHT22;14769;56.934;24.176;2023-02-21T05:23:21;0.50;99.90
27270;DHT22;14769;56.934;24.176;2023-02-21T05:24:40;0.40;99.90
27270;DHT22;14769;56.934;24.176;2023-02-21T05:25:43;0.40;99.90
27270;DHT22;14769;56.934;24.176;2023-02-21T05:26:45;0.40;99.90
27270;DHT22;14769;56.934;24.176;2023-02-21T05:27:48;0.40;99.90
27270;DHT22;14769;56.934;24.176;2023-02-21T05:28:50;0.40;99.90
27270;DHT22;14769;56.934;24.176;2023-02-21T05:29:53;0.40;99.90
27270;DHT22;14769;56.934;24.176;2023-02-21T05:30:56;0.40;99.90
27270;DHT22;14769;56.934;24.176;2023-02-21T05:32:01;0.40;99.90
27270;DHT22;14769;56.934;24.176;2023-02-21T05:33:03;0.40;99.90
27270;DHT22;14769;56.934;24.176;2023-02-21T05:34:05;0.40;99.90
27270;DHT22;14769;56.934;24.176;2023-02-21T05:35:07;0.30;99.90
27270;DHT22;14769;56.934;24.176;2023-02-21T05:36:09;0.30;99.90
27270;DHT22;14769;56.934;24.176;2023-02-21T05:37:11;0.30;99.90
27270;DHT22;14769;56.934;24.176;2023-02-21T05:38:13;0.30;99.90
27270;DHT22;14769;56.934;24.176;2023-02-21T05:39:15;0.30;99.90
27270;DHT22;14769;56.934;24.176;2023-02-21T05:40:17;0.30;99.90
27270;DHT22;14769;56.934;24.176;2023-02-21T05:41:19;0.30;99.90
27270;DHT22;14769;56.934;24.176;2023-02-21T05:42:21;0.30;99.90
27270;DHT22;14769;56.934;24.176;2023-02-21T05:43:23;0.30;99.90
27270;DHT22;14769;56.934;24.176;2023-02-21T05:44:28;0.30;99.90
27270;DHT22;14769;56.934;24.176;2023-02-21T05:45:30;0.30;99.90
27270;DHT22;14769;56.934;24.176;2023-02-21T05:46:33;0.20;99.90
27270;DHT22;14769;56.934;24.176;2023-02-21T05:47:35;0.30;99.90
27270;DHT22;14769;56.934;24.176;2023-02-21T05:48:37;0.20;99.90
27270;DHT22;14769;56.934;24.176;2023-02-21T05:49:39;0.20;99.90
27270;DHT22;14769;56.934;24.176;2023-02-21T05:50:41;0.20;99.90
27270;DHT22;14769;56.934;24.176;2023-02-21T05:51:43;0.30;99.90
27270;DHT22;14769;56.934;24.176;2023-02-21T05:52:45;0.30;99.90
27270;DHT22;14769;56.934;24.176;2023-02-21T05:53:47;0.30;99.90
27270;DHT22;14769;56.934;24.176;2023-02-21T05:54:49;0.20;99.90
27270;DHT22;14769;56.934;24.176;2023-02-21T05:55:51;0.30;99.90
27270;DHT22;14769;56.934;24.176;2023-02-21T05:56:56;0.20;99.90
27270;DHT22;14769;56.934;24.176;2023-02-21T05:57:58;0.20;99.90
27270;DHT22;14769;56.934;24.176;2023-02-21T05:59:00;0.20;99.90
27270;DHT22;14769;56.934;24.176;2023-02-21T06:00:03;0.20;99.90
27270;DHT22;14769;56.934;24.176;2023-02-21T06:01:05;0.20;99.90
27270;DHT22;14769;56.934;24.176;2023-02-21T06:02:06;0.20;99.90
27270;DHT22;14769;56.934;24.176;2023-02-21T06:03:08;0.20;99.90
27270;DHT22;14769;56.934;24.176;2023-02-21T06:04:10;0.20;99.90
27270;DHT22;14769;56.934;24.176;2023-02-21T06:05:12;0.20;99.90
27270;DHT22;14769;56.934;24.176;2023-02-21T06:06:14;0.20;99.90
27270;DHT22;14769;56.934;24.176;2023-02-21T06:07:17;0.20;99.90
27270;DHT22;14769;56.934;24.176;2023-02-21T06:08:19;0.10;99.90
27270;DHT22;14769;56.934;24.176;2023-02-21T06:09:21;0.10;99.90
27270;DHT22;14769;56.934;24.176;2023-02-21T06:10:25;0.10;99.90
27270;DHT22;14769;56.934;24.176;2023-02-21T06:11:28;0.00;99.90
27270;DHT22;14769;56.934;24.176;2023-02-21T06:12:31;0.00;99.90
27270;DHT22;14769;56.934;24.176;2023-02-21T06:13:33;0.00;99.90
27270;DHT22;14769;56.934;24.176;2023-02-21T06:14:34;0.00;99.90
27270;DHT22;14769;56.934;24.176;2023-02-21T06:15:36;0.00;99.90
27270;DHT22;14769;56.934;24.176;2023-02-21T06:16:39;0.00;99.90
27270;DHT22;14769;56.934;24.176;2023-02-21T06:17:41;0.00;99.90
27270;DHT22;14769;56.934;24.176;2023-02-21T06:18:43;0.00;99.90
27270;DHT22;14769;56.934;24.176;2023-02-21T06:19:45;0.00;99.90
27270;DHT22;14769;56.934;24.176;2023-02-21T06:20:47;0.10;99.90
27270;DHT22;14769;56.934;24.176;2023-02-21T06:21:48;0.00;99.90
27270;DHT22;14769;56.934;24.176;2023-02-21T06:22:50;0.00;99.90
27270;DHT22;14769;56.934;24.176;2023-02-21T06:23:52;0.00;99.90
27270;DHT22;14769;56.934;24.176;2023-02-21T06:24:54;-0.10;99.90
27270;DHT22;14769;56.934;24.176;2023-02-21T06:25:56;-0.10;99.90
27270;DHT22;14769;56.934;24.176;2023-02-21T06:26:57;-0.10;99.90
27270;DHT22;14769;56.934;24.176;2023-02-21T06:27:59;-0.10;99.90
27270;DHT22;14769;56.934;24.176;2023-02-21T06:29:02;-0.10;99.90
27270;DHT22;14769;56.934;24.176;2023-02-21T06:30:05;-0.10;99.90
27270;DHT22;14769;56.934;24.176;2023-02-21T06:31:07;-0.10;99.90
27270;DHT22;14769;56.934;24.176;2023-02-21T06:32:09;-0.10;99.90
27270;DHT22;14769;56.934;24.176;2023-02-21T06:33:11;-0.10;99.90
27270;DHT22;14769;56.934;24.176;2023-02-21T06:34:13;-0.10;99.90
27270;DHT22;14769;56.934;24.176;2023-02-21T06:35:15;-0.10;99.90
27270;DHT22;14769;56.934;24.176;2023-02-21T06:36:18;-0.20;99.90
27270;DHT22;14769;56.934;24.176;2023-02-21T06:37:20;-0.20;99.90
27270;DHT22;14769;56.934;24.176;2023-02-21T06:38:22;-0.20;99.90
27270;DHT22;14769;56.934;24.176;2023-02-21T06:39:24;-0.20;99.90
27270;DHT22;14769;56.934;24.176;2023-02-21T06:40:25;-0.20;99.90
27270;DHT22;14769;56.934;24.176;2023-02-21T06:41:28;-0.20;99.90
27270;DHT22;14769;56.934;24.176;2023-02-21T06:42:30;-0.20;99.90
27270;DHT22;14769;56.934;24.176;2023-02-21T06:43:32;-0.30;99.90
27270;DHT22;14769;56.934;24.176;2023-02-21T06:44:34;-0.30;99.90
27270;DHT22;14769;56.934;24.176;2023-02-21T06:45:36;-0.20;99.90
27270;DHT22;14769;56.934;24.176;2023-02-21T06:46:38;-0.30;99.90
27270;DHT22;14769;56.934;24.176;2023-02-21T06:47:40;-0.20;99.90
27270;DHT22;14769;56.934;24.176;2023-02-21T06:48:41;-0.30;99.90
27270;DHT22;14769;56.934;24.176;2023-02-21T06:49:43;-0.30;99.90
27270;DHT22;14769;56.934;24.176;2023-02-21T06:50:45;-0.30;99.90
27270;DHT22;14769;56.934;24.176;2023-02-21T06:51:47;-0.20;99.90
27270;DHT22;14769;56.934;24.176;2023-02-21T06:52:48;-0.30;99.90
27270;DHT22;14769;56.934;24.176;2023-02-21T06:53:50;-0.30;99.90
27270;DHT22;14769;56.934;24.176;2023-02-21T06:54:52;-0.30;99.90
27270;DHT22;14769;56.934;24.176;2023-02-21T06:55:54;-0.30;99.90
27270;DHT22;14769;56.934;24.176;2023-02-21T06:56:56;-0.30;99.90
27270;DHT22;14769;56.934;24.176;2023-02-21T06:57:57;-0.30;99.90
27270;DHT22;14769;56.934;24.176;2023-02-21T06:58:59;-0.30;99.90
27270;DHT22;14769;56.934;24.176;2023-02-21T07:00:02;-0.30;99.90
27270;DHT22;14769;56.934;24.176;2023-02-21T07:01:03;-0.30;99.90
27270;DHT22;14769;56.934;24.176;2023-02-21T07:02:05;-0.30;99.90
27270;DHT22;14769;56.934;24.176;2023-02-21T07:03:09;-0.30;99.90
27270;DHT22;14769;56.934;24.176;2023-02-21T07:04:11;-0.30;99.90
27270;DHT22;14769;56.934;24.176;2023-02-21T07:05:13;-0.30;99.90
27270;DHT22;14769;56.934;24.176;2023-02-21T07:06:16;-0.30;99.90
27270;DHT22;14769;56.934;24.176;2023-02-21T07:07:18;-0.30;99.90
27270;DHT22;14769;56.934;24.176;2023-02-21T07:08:20;-0.30;99.90
27270;DHT22;14769;56.934;24.176;2023-02-21T07:09:22;-0.30;99.90
27270;DHT22;14769;56.934;24.176;2023-02-21T07:10:23;-0.30;99.90
27270;DHT22;14769;56.934;24.176;2023-02-21T07:11:25;-0.30;99.90
27270;DHT22;14769;56.934;24.176;2023-02-21T07:12:27;-0.30;99.90
27270;DHT22;14769;56.934;24.176;2023-02-21T07:13:29;-0.30;99.90
27270;DHT22;14769;56.934;24.176;2023-02-21T07:14:31;-0.30;99.90
27270;DHT22;14769;56.934;24.176;2023-02-21T07:15:33;-0.30;99.90
27270;DHT22;14769;56.934;24.176;2023-02-21T07:16:34;-0.30;99.90
27270;DHT22;14769;56.934;24.176;2023-02-21T07:17:36;-0.30;99.90
27270;DHT22;14769;56.934;24.176;2023-02-21T07:18:38;-0.30;99.90
27270;DHT22;14769;56.934;24.176;2023-02-21T07:19:39;-0.30;99.90
27270;DHT22;14769;56.934;24.176;2023-02-21T07:20:42;-0.30;99.90
27270;DHT22;14769;56.934;24.176;2023-02-21T07:21:44;-0.30;99.90
27270;DHT22;14769;56.934;24.176;2023-02-21T07:22:46;-0.30;99.90
27270;DHT22;14769;56.934;24.176;2023-02-21T07:23:48;-0.30;99.90
27270;DHT22;14769;56.934;24.176;2023-02-21T07:24:50;-0.30;99.90
27270;DHT22;14769;56.934;24.176;2023-02-21T07:25:52;-0.30;99.90
27270;DHT22;14769;56.934;24.176;2023-02-21T07:26:54;-0.20;99.90
27270;DHT22;14769;56.934;24.176;2023-02-21T07:27:56;-0.20;99.90
27270;DHT22;14769;56.934;24.176;2023-02-21T07:28:58;-0.20;99.90
27270;DHT22;14769;56.934;24.176;2023-02-21T07:29:59;-0.20;99.90
27270;DHT22;14769;56.934;24.176;2023-02-21T07:31:01;-0.20;99.90
27270;DHT22;14769;56.934;24.176;2023-02-21T07:32:03;-0.20;99.90
27270;DHT22;14769;56.934;24.176;2023-02-21T07:33:05;-0.30;99.90
27270;DHT22;14769;56.934;24.176;2023-02-21T07:34:06;-0.30;99.90